メインページ
METAR-TAF:

METAR-TAF

空港 :

ロマン・トメトゥチェル国際空港

コロール, バベルダオブ島, パラオ

緯度: 07-22N, 経度: 134-32E, 海抜: 54m

現時点の気象観測

当レポートは17分前の23:50(UTC)に作成
西/南西の風 5kt
気温 28°C
湿度 79%
気圧 1009 hPa
視程: 22.5km
高度1600ftの雲は散在している, 塔状積雲.
高度11000ftの千切れ雲あり
高度30000ftの曇り

METAR: PTRO 162350Z 24005KT 14SM SCT016TCU BKN110 OVC300 28/24 A2981 RMK TCU ALQDS

時間: 09:07 (00:07 UTC)

予報

当レポートは15分前の23:52(UTC)に作成
予報は17日の 00時(UTC)から 17日の 24時(UTC)まで有効
南西の風 10kt
視程: 10km
高度1600ftの雲は散在している
高度11000ftの千切れ雲あり
近辺でにわか雨
17日の 02時(UTC)から 17日の 05時(UTC)まで一時的に
西/南西の風 10kt、最大20ktの突風を伴う
視程: 4.8km
高度1400ftの千切れ雲あり
高度7000ftの曇り
にわか雨

TAF: PTRO 162352Z 1700/1724 23010KT P6SM VCSH SCT016 BKN110 TEMPO 1702/1705 24010G20KT 3SM SHRA BKN014 OVC070

4,000以上の空港の気象観測と天気予報(METAR報とTAF報)

利用可能な観測所は地図上に黄色い丸と赤い丸で示す。

丸の上にカーソルを重ねると観測所名を参照できる。

次にクリックすると気象観測と天気予報を参照できる。

マップの切り替え:黒色「×」印の緑ボタンをクリックして拡大、「-」印の緑ボタンをクリックして縮小、緑色の三角印をクリックして隣りの地図に切り替え


METAR-TAF: